createdAt,value
2018-06-16T00:00:51.936Z,94.12
2018-06-16T00:02:00.896Z,94.98
2018-06-16T00:03:09.834Z,94.02
2018-06-16T00:04:18.503Z,94.12
2018-06-16T00:05:27.174Z,94.31
2018-06-16T00:06:36.114Z,94.31
2018-06-16T00:07:45.055Z,94.69
2018-06-16T00:08:53.727Z,94.79
2018-06-16T00:10:02.400Z,94.69
2018-06-16T00:11:11.333Z,94.4
2018-06-16T00:12:20.005Z,94.89
2018-06-16T00:13:28.680Z,94.98
2018-06-16T00:14:37.351Z,94.98
2018-06-16T00:15:46.021Z,94.79
2018-06-16T00:16:54.695Z,94.98
2018-06-16T00:18:03.361Z,95.65
2018-06-16T00:19:12.031Z,95.26
2018-06-16T00:20:20.700Z,95.07
2018-06-16T00:21:29.380Z,94.79
2018-06-16T00:22:38.046Z,94.98
2018-06-16T00:23:46.724Z,95.46
2018-06-16T00:24:55.389Z,96.13
2018-06-16T00:26:04.059Z,95.94
2018-06-16T00:27:12.730Z,95.75
2018-06-16T00:28:21.398Z,94.89
2018-06-16T00:29:30.068Z,95.36
2018-06-16T00:30:38.741Z,94.98
2018-06-16T00:31:47.413Z,95.17
2018-06-16T00:32:56.082Z,95.17
2018-06-16T00:34:05.021Z,95.7
2018-06-16T00:35:13.690Z,96.03
2018-06-16T00:36:22.363Z,96.22
2018-06-16T00:37:31.298Z,96.32
2018-06-16T00:38:39.965Z,96.66
2018-06-16T00:39:48.907Z,96.42
2018-06-16T00:40:57.575Z,96.03
2018-06-16T00:42:06.243Z,96.22
2018-06-16T00:43:14.913Z,96.8
2018-06-16T00:44:23.580Z,96.8
2018-06-16T00:45:32.250Z,96.66
2018-06-16T00:46:40.919Z,97.42
2018-06-16T00:47:49.853Z,96.94
2018-06-16T00:48:58.522Z,96.94
2018-06-16T00:50:07.196Z,97.33
2018-06-16T00:51:15.865Z,97.61
2018-06-16T00:52:24.803Z,97.23
2018-06-16T00:53:33.477Z,97.38
2018-06-16T00:54:42.417Z,97.28
2018-06-16T00:55:51.087Z,97.18
2018-06-16T00:56:59.758Z,97.9
2018-06-16T00:58:08.430Z,97.28
2018-06-16T00:59:17.363Z,97.38
2018-06-16T01:00:26.035Z,97.38
2018-06-16T01:01:34.706Z,97.47
2018-06-16T01:02:43.375Z,97.23
2018-06-16T01:03:52.309Z,98
2018-06-16T01:05:00.980Z,97.9
2018-06-16T01:06:09.651Z,98
2018-06-16T01:07:18.322Z,97.71
2018-06-16T01:08:26.995Z,97.42
2018-06-16T01:09:35.664Z,97.23
2018-06-16T01:10:44.335Z,97.14
2018-06-16T01:11:53.005Z,97.42
2018-06-16T01:13:01.944Z,97.14
2018-06-16T01:14:11.156Z,97.42
2018-06-16T01:15:19.827Z,97.8
2018-06-16T01:16:28.499Z,97.61
2018-06-16T01:17:37.163Z,97.8
2018-06-16T01:18:45.832Z,97.71
2018-06-16T01:19:54.504Z,97.71
2018-06-16T01:21:03.172Z,97.52
2018-06-16T01:22:11.845Z,97.42
2018-06-16T01:23:20.513Z,98.1
2018-06-16T01:24:29.187Z,97.33
2018-06-16T01:25:38.120Z,97.71
2018-06-16T01:26:47.057Z,98.19
2018-06-16T01:27:55.725Z,97.52
2018-06-16T01:29:04.392Z,97.04
2018-06-16T01:30:13.332Z,97.33
2018-06-16T01:31:22.001Z,97.23
2018-06-16T01:32:30.672Z,97.33
2018-06-16T01:33:39.339Z,97.61
2018-06-16T01:34:48.006Z,97.33
2018-06-16T01:35:56.675Z,98
2018-06-16T01:37:05.344Z,97.8
2018-06-16T01:38:14.013Z,97.33
2018-06-16T01:39:22.683Z,97.9
2018-06-16T01:40:31.355Z,98
2018-06-16T01:41:40.025Z,98.1
2018-06-16T01:42:48.696Z,98
2018-06-16T01:43:57.366Z,97.8
2018-06-16T01:45:06.037Z,98.19
2018-06-16T01:46:14.705Z,98.28
2018-06-16T01:47:23.378Z,98.28
2018-06-16T01:48:32.047Z,98.38
2018-06-16T01:49:40.981Z,98.19
2018-06-16T01:50:49.650Z,98.1
2018-06-16T01:51:58.317Z,98.1
2018-06-16T01:53:06.986Z,98.86
2018-06-16T01:54:15.657Z,98.96
2018-06-16T01:55:24.326Z,98.76
2018-06-16T01:56:33.293Z,99.15
2018-06-16T01:57:42.224Z,98.96
2018-06-16T01:58:50.894Z,98.86
2018-06-16T01:59:59.573Z,98.86
2018-06-16T02:01:08.795Z,98.86
2018-06-16T02:02:17.462Z,98.86
2018-06-16T02:03:26.132Z,99.43
2018-06-16T02:04:34.801Z,99.1
2018-06-16T02:05:43.750Z,99.38
2018-06-16T02:06:52.420Z,99.99
2018-06-16T02:08:01.088Z,99.99
2018-06-16T02:09:09.759Z,99.99
2018-06-16T02:10:18.427Z,99.99
2018-06-16T02:11:27.096Z,99.99
2018-06-16T02:12:35.765Z,99.99
2018-06-16T02:13:44.704Z,99.99
2018-06-16T02:14:53.384Z,99.96
2018-06-16T02:16:02.050Z,99.96
2018-06-16T02:17:10.716Z,99.99
2018-06-16T02:18:19.381Z,99.99
2018-06-16T02:19:28.050Z,99.99
2018-06-16T02:20:36.720Z,99.99
2018-06-16T02:21:45.389Z,99.99
2018-06-16T02:22:54.057Z,99.87
2018-06-16T02:24:02.994Z,99.99
2018-06-16T02:25:11.927Z,99.99
2018-06-16T02:26:20.597Z,99.99
2018-06-16T02:27:29.266Z,99.99
2018-06-16T02:28:37.934Z,99.99
2018-06-16T02:29:46.604Z,99.99
2018-06-16T02:30:55.276Z,99.99
2018-06-16T02:32:04.218Z,99.99
2018-06-16T02:33:13.430Z,99.99
2018-06-16T02:34:22.377Z,99.99
2018-06-16T02:35:31.316Z,99.99
2018-06-16T02:36:39.986Z,99.99
2018-06-16T02:37:48.663Z,99.99
2018-06-16T02:38:57.342Z,99.99
2018-06-16T02:40:06.014Z,99.99
2018-06-16T02:41:14.686Z,99.99
2018-06-16T02:42:23.623Z,99.99
2018-06-16T02:43:32.303Z,99.99
2018-06-16T02:44:41.771Z,99.99
2018-06-16T02:45:50.440Z,99.99
2018-06-16T02:46:59.109Z,99.99
2018-06-16T02:48:07.787Z,99.99
2018-06-16T02:49:16.452Z,99.99
2018-06-16T02:50:25.205Z,99.99
2018-06-16T02:51:34.371Z,99.99
2018-06-16T02:52:43.338Z,99.99
2018-06-16T02:53:52.296Z,99.99
2018-06-16T02:55:00.972Z,99.99
2018-06-16T02:56:10.155Z,99.99
2018-06-16T02:57:18.823Z,99.99
2018-06-16T02:58:28.008Z,99.99
2018-06-16T02:59:36.668Z,99.99
2018-06-16T03:00:45.648Z,99.99
2018-06-16T03:01:54.823Z,99.99
2018-06-16T03:03:03.561Z,99.99
2018-06-16T03:04:12.814Z,99.99
2018-06-16T03:05:21.659Z,99.99
2018-06-16T03:06:30.532Z,99.99
2018-06-16T03:07:39.183Z,99.99
2018-06-16T03:08:47.980Z,99.99
2018-06-16T03:09:56.645Z,99.99
2018-06-16T03:11:05.278Z,99.99
2018-06-16T03:12:13.932Z,99.99
2018-06-16T03:13:22.582Z,99.99
2018-06-16T03:14:31.766Z,99.99
2018-06-16T03:15:40.415Z,99.99
2018-06-16T03:16:49.063Z,99.99
2018-06-16T03:17:57.969Z,99.99
2018-06-16T03:19:06.625Z,99.99
2018-06-16T03:20:15.532Z,99.99
2018-06-16T03:21:24.176Z,99.99
2018-06-16T03:22:32.819Z,99.99
2018-06-16T03:23:41.731Z,99.99
2018-06-16T03:24:50.388Z,99.99
2018-06-16T03:25:59.028Z,99.99
2018-06-16T03:27:07.679Z,99.99
2018-06-16T03:28:16.318Z,99.99
2018-06-16T03:29:24.972Z,99.99
2018-06-16T03:30:33.619Z,99.99
2018-06-16T03:31:42.545Z,99.99
2018-06-16T03:32:51.441Z,99.99
2018-06-16T03:34:00.099Z,99.99
2018-06-16T03:35:08.742Z,99.99
2018-06-16T03:36:17.394Z,99.99
2018-06-16T03:37:26.289Z,99.99
2018-06-16T03:38:35.196Z,99.99
2018-06-16T03:39:44.106Z,99.99
2018-06-16T03:40:52.755Z,99.99
2018-06-16T03:42:01.404Z,99.99
2018-06-16T03:43:10.048Z,99.99
2018-06-16T03:44:18.693Z,99.99
2018-06-16T03:45:27.607Z,99.99
2018-06-16T03:46:36.256Z,99.99
2018-06-16T03:47:44.899Z,99.99
2018-06-16T03:48:53.545Z,99.99
2018-06-16T03:50:02.193Z,99.99
2018-06-16T03:51:10.844Z,99.99
2018-06-16T03:52:19.747Z,99.99
2018-06-16T03:53:28.394Z,99.99
2018-06-16T03:54:37.040Z,99.99
2018-06-16T03:55:45.692Z,99.99
2018-06-16T03:56:54.871Z,99.99
2018-06-16T03:58:03.512Z,99.99
2018-06-16T03:59:12.156Z,99.99
2018-06-16T04:00:20.799Z,99.99
2018-06-16T04:01:29.449Z,99.96
2018-06-16T04:02:38.094Z,99.96
2018-06-16T04:03:47.004Z,99.99
2018-06-16T04:04:55.646Z,99.99
2018-06-16T04:06:04.565Z,99.99
2018-06-16T04:07:13.216Z,99.99
2018-06-16T04:08:21.862Z,99.99
2018-06-16T04:09:30.504Z,99.99
2018-06-16T04:10:39.424Z,99.43
2018-06-16T04:11:48.069Z,99.72
2018-06-16T04:12:56.976Z,99.82
2018-06-16T04:14:05.616Z,99.43
2018-06-16T04:15:14.266Z,99.53
2018-06-16T04:16:22.911Z,99.72
2018-06-16T04:17:31.560Z,99.53
2018-06-16T04:18:40.210Z,99.72
2018-06-16T04:19:49.111Z,99.34
2018-06-16T04:20:57.756Z,98.76
2018-06-16T04:22:06.671Z,98.76
2018-06-16T04:23:15.326Z,98.86
2018-06-16T04:24:23.965Z,98.86
2018-06-16T04:25:32.879Z,98.57
2018-06-16T04:26:41.544Z,98.76
2018-06-16T04:27:50.476Z,98.67
2018-06-16T04:28:59.115Z,98.19
2018-06-16T04:30:07.764Z,98.38
2018-06-16T04:31:16.410Z,98.38
2018-06-16T04:32:25.064Z,98.43
2018-06-16T04:33:33.971Z,97.85
2018-06-16T04:34:42.664Z,97.85
2018-06-16T04:35:51.268Z,98.33
2018-06-16T04:36:59.918Z,97.76
2018-06-16T04:38:08.568Z,97.85
2018-06-16T04:39:17.210Z,98.24
2018-06-16T04:40:25.855Z,98.05
2018-06-16T04:41:34.510Z,98.14
2018-06-16T04:42:43.426Z,98.33
2018-06-16T04:43:52.075Z,98.33
2018-06-16T04:45:00.985Z,97.95
2018-06-16T04:46:09.637Z,98.43
2018-06-16T04:47:18.549Z,97.66
2018-06-16T04:48:27.196Z,97.76
2018-06-16T04:49:35.844Z,98.14
2018-06-16T04:50:44.497Z,98.24
2018-06-16T04:51:53.671Z,97.95
2018-06-16T04:53:02.346Z,97.38
2018-06-16T04:54:10.965Z,97.66
2018-06-16T04:55:19.871Z,97.28
2018-06-16T04:56:28.522Z,97.18
2018-06-16T04:57:37.169Z,97.18
2018-06-16T04:58:46.075Z,97.14
2018-06-16T04:59:54.989Z,96.85
2018-06-16T05:01:03.643Z,96.47
2018-06-16T05:02:12.289Z,96.27
2018-06-16T05:03:20.940Z,96.27
2018-06-16T05:04:29.585Z,95.6
2018-06-16T05:05:38.768Z,95.79
2018-06-16T05:06:47.415Z,94.93
2018-06-16T05:07:56.065Z,94.74
2018-06-16T05:09:04.972Z,94.64
2018-06-16T05:10:13.888Z,94.35
2018-06-16T05:11:22.533Z,93.4
2018-06-16T05:12:31.182Z,93.78
2018-06-16T05:13:39.832Z,93.44
2018-06-16T05:14:48.473Z,92.68
2018-06-16T05:15:57.120Z,92.39
2018-06-16T05:17:05.771Z,91.91
2018-06-16T05:18:14.422Z,91.62
2018-06-16T05:19:23.063Z,90.75
2018-06-16T05:20:31.710Z,90.66
2018-06-16T05:21:40.625Z,90.18
2018-06-16T05:22:49.551Z,89.79
2018-06-16T05:23:58.193Z,90.03
2018-06-16T05:25:06.845Z,89.17
2018-06-16T05:26:15.488Z,88.98
2018-06-16T05:27:24.139Z,88.21
2018-06-16T05:28:33.046Z,88.11
2018-06-16T05:29:41.986Z,88.21
2018-06-16T05:30:50.893Z,88.02
2018-06-16T05:31:59.802Z,87.58
2018-06-16T05:33:08.721Z,86.72
2018-06-16T05:34:17.372Z,86.91
2018-06-16T05:35:26.281Z,87.1
2018-06-16T05:36:34.924Z,86.72
2018-06-16T05:37:43.594Z,86.72
2018-06-16T05:38:52.497Z,86.05
2018-06-16T05:40:01.149Z,86.24
2018-06-16T05:41:09.788Z,85.95
2018-06-16T05:42:18.446Z,86.14
2018-06-16T05:43:27.356Z,85.75
2018-06-16T05:44:36.275Z,85.18
2018-06-16T05:45:45.174Z,85.57
2018-06-16T05:46:53.823Z,85.57
2018-06-16T05:48:02.479Z,85.37
2018-06-16T05:49:11.126Z,85.57
2018-06-16T05:50:20.039Z,85.08
2018-06-16T05:51:28.680Z,85.32
2018-06-16T05:52:37.333Z,84.74
2018-06-16T05:53:45.986Z,85.22
2018-06-16T05:54:54.644Z,84.84
2018-06-16T05:56:03.282Z,84.94
2018-06-16T05:57:11.934Z,84.64
2018-06-16T05:58:20.576Z,84.36
2018-06-16T05:59:29.233Z,84.64
2018-06-16T06:00:37.875Z,85.13
2018-06-16T06:01:46.792Z,85.13
2018-06-16T06:02:55.437Z,85.13
2018-06-16T06:04:04.100Z,85.41
2018-06-16T06:05:12.742Z,85.71
2018-06-16T06:06:21.390Z,85.99
2018-06-16T06:07:30.556Z,85.8
2018-06-16T06:08:39.202Z,85.41
2018-06-16T06:09:47.860Z,85.32
2018-06-16T06:10:56.504Z,85.61
2018-06-16T06:12:05.158Z,86.09
2018-06-16T06:13:13.796Z,86.09
2018-06-16T06:14:22.717Z,85.99
2018-06-16T06:15:31.366Z,86.09
2018-06-16T06:16:40.018Z,85.99
2018-06-16T06:17:48.658Z,86.18
2018-06-16T06:18:57.317Z,86.57
2018-06-16T06:20:05.963Z,86.28
2018-06-16T06:21:14.619Z,86.28
2018-06-16T06:22:23.257Z,86.38
2018-06-16T06:23:31.911Z,86.38
2018-06-16T06:24:40.566Z,86.66
2018-06-16T06:25:49.216Z,86.18
2018-06-16T06:26:57.867Z,86.66
2018-06-16T06:28:06.508Z,86.76
2018-06-16T06:29:15.199Z,86.76
2018-06-16T06:30:23.808Z,86.95
2018-06-16T06:31:32.464Z,86.95
2018-06-16T06:32:41.103Z,87.15
2018-06-16T06:33:49.757Z,86.18
2018-06-16T06:34:58.401Z,86.61
2018-06-16T06:36:07.332Z,86.42
2018-06-16T06:37:16.252Z,85.94
2018-06-16T06:38:24.887Z,86.32
2018-06-16T06:39:33.531Z,85.55
2018-06-16T06:40:42.184Z,85.17
2018-06-16T06:41:50.830Z,84.69
2018-06-16T06:42:59.477Z,84.3
2018-06-16T06:44:08.124Z,83.86
2018-06-16T06:45:17.033Z,83.09
2018-06-16T06:46:25.687Z,83.19
2018-06-16T06:47:34.333Z,83.09
2018-06-16T06:48:42.983Z,83.29
2018-06-16T06:49:52.158Z,82.32
2018-06-16T06:51:01.074Z,82.75
2018-06-16T06:52:09.736Z,82.23
2018-06-16T06:53:18.376Z,82.14
2018-06-16T06:54:27.020Z,81.21
2018-06-16T06:55:35.677Z,81.02
2018-06-16T06:56:44.325Z,81.02
2018-06-16T06:57:53.029Z,80.73
2018-06-16T06:59:01.623Z,80.63
2018-06-16T07:00:10.275Z,80.83
2018-06-16T07:01:18.925Z,81.5
2018-06-16T07:02:27.855Z,80.83
2018-06-16T07:03:36.513Z,81.02
2018-06-16T07:04:45.420Z,79.96
2018-06-16T07:05:54.335Z,80.29
2018-06-16T07:07:02.986Z,80.48
2018-06-16T07:08:11.640Z,79.81
2018-06-16T07:09:20.601Z,79.23
2018-06-16T07:10:29.252Z,78.65
2018-06-16T07:11:37.867Z,78.17
2018-06-16T07:12:46.520Z,77.4
2018-06-16T07:13:55.172Z,77.53
2018-06-16T07:15:03.818Z,77.83
2018-06-16T07:16:12.466Z,77.06
2018-06-16T07:17:21.120Z,77.25
2018-06-16T07:18:29.766Z,76.86
2018-06-16T07:19:38.415Z,76.67
2018-06-16T07:20:47.065Z,76.86
2018-06-16T07:21:55.713Z,77.06
2018-06-16T07:23:04.366Z,76.57
2018-06-16T07:24:13.015Z,76.28
2018-06-16T07:25:21.665Z,76.48
2018-06-16T07:26:30.311Z,76.03
2018-06-16T07:27:38.968Z,75.93
2018-06-16T07:28:47.615Z,75.74
2018-06-16T07:29:56.270Z,76.42
2018-06-16T07:31:05.199Z,75.55
2018-06-16T07:32:13.853Z,75.07
2018-06-16T07:33:22.500Z,75.16
2018-06-16T07:34:31.157Z,75.07
2018-06-16T07:35:39.802Z,75.3
2018-06-16T07:36:48.454Z,74.72
2018-06-16T07:37:57.112Z,74.43
2018-06-16T07:39:05.763Z,73.75
2018-06-16T07:40:14.421Z,74.05
2018-06-16T07:41:23.340Z,73.66
2018-06-16T07:42:31.985Z,73.57
2018-06-16T07:43:40.631Z,74.14
2018-06-16T07:44:49.289Z,74.14
2018-06-16T07:45:57.935Z,74.05
2018-06-16T07:47:06.591Z,72.83
2018-06-16T07:48:15.241Z,72.06
2018-06-16T07:49:23.898Z,72.25
2018-06-16T07:50:32.540Z,72.34
2018-06-16T07:51:41.192Z,72.34
2018-06-16T07:52:49.841Z,72.25
2018-06-16T07:53:58.499Z,71.67
2018-06-16T07:55:07.151Z,71.19
2018-06-16T07:56:15.839Z,70.8
2018-06-16T07:57:24.445Z,70.8
2018-06-16T07:58:33.094Z,71
2018-06-16T07:59:41.752Z,70.74
2018-06-16T08:00:50.399Z,70.54
2018-06-16T08:01:59.054Z,71.03
2018-06-16T08:03:07.702Z,70.64
2018-06-16T08:04:16.623Z,70.16
2018-06-16T08:05:25.272Z,70.16
2018-06-16T08:06:33.929Z,70.45
2018-06-16T08:07:42.833Z,70.36
2018-06-16T08:08:51.491Z,70.54
2018-06-16T08:10:00.414Z,70.54
2018-06-16T08:11:09.328Z,70.74
2018-06-16T08:12:17.971Z,70.36
2018-06-16T08:13:26.623Z,71.12
2018-06-16T08:14:35.279Z,70.58
2018-06-16T08:15:43.932Z,70.48
2018-06-16T08:16:52.856Z,70.87
2018-06-16T08:18:01.555Z,69.32
2018-06-16T08:19:10.158Z,70.29
2018-06-16T08:20:18.810Z,70.1
2018-06-16T08:21:27.732Z,69.52
2018-06-16T08:22:36.372Z,69.62
2018-06-16T08:23:45.027Z,69.9
2018-06-16T08:24:53.944Z,70.68
2018-06-16T08:26:02.606Z,69.23
2018-06-16T08:27:11.245Z,69.9
2018-06-16T08:28:19.905Z,68.84
2018-06-16T08:29:28.548Z,68.26
2018-06-16T08:30:37.215Z,68.2
2018-06-16T08:31:46.121Z,67.33
2018-06-16T08:32:54.772Z,69.17
2018-06-16T08:34:03.424Z,68.59
2018-06-16T08:35:12.080Z,68.78
2018-06-16T08:36:20.724Z,67.72
2018-06-16T08:37:29.377Z,68.3
2018-06-16T08:38:38.023Z,68.3
2018-06-16T08:39:46.683Z,68.4
2018-06-16T08:40:55.332Z,67.82
2018-06-16T08:42:03.987Z,68.3
2018-06-16T08:43:12.686Z,67.72
2018-06-16T08:44:21.297Z,67.62
2018-06-16T08:45:29.941Z,68.78
2018-06-16T08:46:38.595Z,69.26
2018-06-16T08:47:47.245Z,69.17
2018-06-16T08:48:56.180Z,68.78
2018-06-16T08:50:04.829Z,68.01
2018-06-16T08:51:13.479Z,68.68
2018-06-16T08:52:22.127Z,68.2
2018-06-16T08:53:30.782Z,70.04
2018-06-16T08:54:39.441Z,70.62
2018-06-16T08:55:48.090Z,70.32
2018-06-16T08:56:56.751Z,68.49
2018-06-16T08:58:05.389Z,67.72
2018-06-16T08:59:14.050Z,68.3
2018-06-16T09:00:22.695Z,67.33
2018-06-16T09:01:31.619Z,67.52
2018-06-16T09:02:40.261Z,67.33
2018-06-16T09:03:48.925Z,66.75
2018-06-16T09:04:57.840Z,67.33
2018-06-16T09:06:06.495Z,68.1
2018-06-16T09:07:15.138Z,67.91
2018-06-16T09:08:23.791Z,70.04
2018-06-16T09:09:32.453Z,68.2
2018-06-16T09:10:41.106Z,67.43
2018-06-16T09:11:49.763Z,66.46
2018-06-16T09:12:58.665Z,66.36
2018-06-16T09:14:07.325Z,67.72
2018-06-16T09:15:15.975Z,68.68
2018-06-16T09:16:24.904Z,68.1
2018-06-16T09:17:33.542Z,67.24
2018-06-16T09:18:42.199Z,68.2
2018-06-16T09:19:50.848Z,68.01
2018-06-16T09:20:59.510Z,66.85
2018-06-16T09:22:08.154Z,66.36
2018-06-16T09:23:16.809Z,66.56
2018-06-16T09:24:25.729Z,65.92
2018-06-16T09:25:34.391Z,66.78
2018-06-16T09:26:43.049Z,67.75
2018-06-16T09:27:51.696Z,66.3
2018-06-16T09:29:00.620Z,65.43
2018-06-16T09:30:09.268Z,65.3
2018-06-16T09:31:17.931Z,64.24
2018-06-16T09:32:26.588Z,64.63
2018-06-16T09:33:35.237Z,65.98
2018-06-16T09:34:43.888Z,65.01
2018-06-16T09:35:52.542Z,65.82
2018-06-16T09:37:01.197Z,67.75
2018-06-16T09:38:09.849Z,67.27
2018-06-16T09:39:18.499Z,66.01
2018-06-16T09:40:27.158Z,65.92
2018-06-16T09:41:35.808Z,64.76
2018-06-16T09:42:44.462Z,63.98
2018-06-16T09:43:53.110Z,65.08
2018-06-16T09:45:01.768Z,64.4
2018-06-16T09:46:10.424Z,63.53
2018-06-16T09:47:19.076Z,63.53
2018-06-16T09:48:27.731Z,62.85
2018-06-16T09:49:36.380Z,62.37
2018-06-16T09:50:45.033Z,61.79
2018-06-16T09:51:53.687Z,61.3
2018-06-16T09:53:02.346Z,61.11
2018-06-16T09:54:11.260Z,61.3
2018-06-16T09:55:19.913Z,62.08
2018-06-16T09:56:28.567Z,61.89
2018-06-16T09:57:37.222Z,61.69
2018-06-16T09:58:45.870Z,62.85
2018-06-16T09:59:54.782Z,61.89
2018-06-16T10:01:03.691Z,60.92
2018-06-16T10:02:12.347Z,60.72
2018-06-16T10:03:21.004Z,60.72
2018-06-16T10:04:29.654Z,60.63
2018-06-16T10:05:38.567Z,61.21
2018-06-16T10:06:47.222Z,61.3
2018-06-16T10:07:55.882Z,61.6
2018-06-16T10:09:05.058Z,60.66
2018-06-16T10:10:13.712Z,60.37
2018-06-16T10:11:22.364Z,61.24
2018-06-16T10:12:31.290Z,60.85
2018-06-16T10:13:39.944Z,60.27
2018-06-16T10:14:48.596Z,60.57
2018-06-16T10:15:57.265Z,59.79
2018-06-16T10:17:05.906Z,60.08
2018-06-16T10:18:14.554Z,59.59
2018-06-16T10:19:23.212Z,59.79
2018-06-16T10:20:31.859Z,59.43
2018-06-16T10:21:40.514Z,59.33
2018-06-16T10:22:49.168Z,59.01
2018-06-16T10:23:58.086Z,59.23
2018-06-16T10:25:06.743Z,58.85
2018-06-16T10:26:15.391Z,59.53
2018-06-16T10:27:24.045Z,57.28
2018-06-16T10:28:32.701Z,56.04
2018-06-16T10:29:41.356Z,57.08
2018-06-16T10:30:50.021Z,56.98
2018-06-16T10:31:58.942Z,57.56
2018-06-16T10:33:07.595Z,60.01
2018-06-16T10:34:16.258Z,59.11
2018-06-16T10:35:24.902Z,57.11
2018-06-16T10:36:33.560Z,56.6
2018-06-16T10:37:42.210Z,57.18
2018-06-16T10:38:50.880Z,55.27
2018-06-16T10:39:59.529Z,55.43
2018-06-16T10:41:08.176Z,56.7
2018-06-16T10:42:16.825Z,55.53
2018-06-16T10:43:25.488Z,55.34
2018-06-16T10:44:34.149Z,54.75
2018-06-16T10:45:43.064Z,56.3
2018-06-16T10:46:51.720Z,54.47
2018-06-16T10:48:00.367Z,54.17
2018-06-16T10:49:09.298Z,54.17
2018-06-16T10:50:17.944Z,54.17
2018-06-16T10:51:26.601Z,55.43
2018-06-16T10:52:35.243Z,54.39
2018-06-16T10:53:43.904Z,53.91
2018-06-16T10:54:52.819Z,54.11
2018-06-16T10:56:02.002Z,52.95
2018-06-16T10:57:10.646Z,53.43
2018-06-16T10:58:19.295Z,54.49
2018-06-16T10:59:27.957Z,55.36
2018-06-16T11:00:36.869Z,57.95
2018-06-16T11:01:45.523Z,55.27
2018-06-16T11:02:54.168Z,55.27
2018-06-16T11:04:02.838Z,54.21
2018-06-16T11:05:11.747Z,55.27
2018-06-16T11:06:20.667Z,55.94
2018-06-16T11:07:29.311Z,55.56
2018-06-16T11:08:38.251Z,54.59
2018-06-16T11:09:46.897Z,53.91
2018-06-16T11:10:55.557Z,54.3
2018-06-16T11:12:04.203Z,55.76
2018-06-16T11:13:12.856Z,55.94
2018-06-16T11:14:21.507Z,54.33
2018-06-16T11:15:30.168Z,54.13
2018-06-16T11:16:38.820Z,55.2
2018-06-16T11:17:47.467Z,53.94
2018-06-16T11:18:56.116Z,53.75
2018-06-16T11:20:05.036Z,54.13
2018-06-16T11:21:13.693Z,54.62
2018-06-16T11:22:22.341Z,54.62
2018-06-16T11:23:30.998Z,54.43
2018-06-16T11:24:39.646Z,55.49
2018-06-16T11:25:48.574Z,53.85
2018-06-16T11:26:57.222Z,54.03
2018-06-16T11:28:05.883Z,54.23
2018-06-16T11:29:14.529Z,54.33
2018-06-16T11:30:23.234Z,54.43
2018-06-16T11:31:31.840Z,54.03
2018-06-16T11:32:40.496Z,53.75
2018-06-16T11:33:49.149Z,53.94
2018-06-16T11:34:57.804Z,54.43
2018-06-16T11:36:06.721Z,53.85
2018-06-16T11:37:15.381Z,54.23
2018-06-16T11:38:24.307Z,55.78
2018-06-16T11:39:32.956Z,52.78
2018-06-16T11:40:41.609Z,53.17
2018-06-16T11:41:50.263Z,52.1
2018-06-16T11:42:58.921Z,52.1
2018-06-16T11:44:07.567Z,52.78
2018-06-16T11:45:16.220Z,51.13
2018-06-16T11:46:25.134Z,52.29
2018-06-16T11:47:33.794Z,51.72
2018-06-16T11:48:42.450Z,52.97
2018-06-16T11:49:51.101Z,52
2018-06-16T11:50:59.749Z,52.78
2018-06-16T11:52:08.674Z,51.13
2018-06-16T11:53:17.326Z,51.72
2018-06-16T11:54:25.981Z,52.97
2018-06-16T11:55:34.632Z,52.97
2018-06-16T11:56:43.543Z,52.42
2018-06-16T11:57:52.200Z,51.84
2018-06-16T11:59:00.856Z,52.12
2018-06-16T12:00:09.510Z,52.32
2018-06-16T12:01:18.157Z,54.03
2018-06-16T12:02:27.083Z,53.97
2018-06-16T12:03:35.998Z,51.93
2018-06-16T12:04:44.918Z,52.1
2018-06-16T12:05:53.565Z,52.2
2018-06-16T12:07:02.487Z,51.45
2018-06-16T12:08:11.141Z,51.23
2018-06-16T12:09:20.089Z,51.42
2018-06-16T12:10:28.738Z,51.62
2018-06-16T12:11:37.397Z,51.9
2018-06-16T12:12:46.052Z,53.36
2018-06-16T12:13:54.711Z,53.75
2018-06-16T12:15:03.631Z,54.81
2018-06-16T12:16:12.543Z,54.62
2018-06-16T12:17:21.198Z,54.45
2018-06-16T12:18:29.849Z,52.42
2018-06-16T12:19:38.511Z,52.12
2018-06-16T12:20:47.426Z,52.03
2018-06-16T12:21:56.081Z,51.93
2018-06-16T12:23:04.734Z,51.64
2018-06-16T12:24:13.393Z,51.45
2018-06-16T12:25:22.044Z,51.45
2018-06-16T12:26:30.701Z,50.96
2018-06-16T12:27:39.353Z,51.54
2018-06-16T12:28:48.004Z,52.12
2018-06-16T12:29:56.664Z,51.64
2018-06-16T12:31:05.317Z,51.64
2018-06-16T12:32:13.975Z,51.74
2018-06-16T12:33:22.893Z,52.78
2018-06-16T12:34:31.815Z,51.9
2018-06-16T12:35:40.472Z,52.29
2018-06-16T12:36:49.123Z,53.75
2018-06-16T12:37:57.780Z,53.39
2018-06-16T12:39:06.432Z,52.49
2018-06-16T12:40:15.086Z,52.03
2018-06-16T12:41:23.738Z,52.49
2018-06-16T12:42:32.397Z,52.49
2018-06-16T12:43:41.046Z,52.87
2018-06-16T12:44:49.704Z,52.87
2018-06-16T12:45:58.356Z,52.29
2018-06-16T12:47:07.017Z,52.95
2018-06-16T12:48:15.666Z,52.46
2018-06-16T12:49:24.315Z,53.53
2018-06-16T12:50:33.228Z,54.11
2018-06-16T12:51:41.879Z,53.72
2018-06-16T12:52:50.804Z,54.49
2018-06-16T12:53:59.463Z,54.13
2018-06-16T12:55:08.380Z,53.26
2018-06-16T12:56:17.035Z,52.78
2018-06-16T12:57:25.993Z,54.11
2018-06-16T12:58:34.603Z,54.01
2018-06-16T12:59:43.257Z,53.91
2018-06-16T13:00:51.906Z,53.91
2018-06-16T13:02:00.828Z,53.91
2018-06-16T13:03:09.480Z,52.97
2018-06-16T13:04:18.135Z,53.94
2018-06-16T13:05:27.054Z,52.49
2018-06-16T13:06:35.710Z,52.97
2018-06-16T13:07:44.636Z,54.23
2018-06-16T13:08:53.290Z,55.71
2018-06-16T13:10:01.948Z,54.33
2018-06-16T13:11:10.597Z,51.93
2018-06-16T13:12:19.251Z,51.35
2018-06-16T13:13:27.904Z,50.87
2018-06-16T13:14:36.564Z,51.42
2018-06-16T13:15:45.214Z,51.42
2018-06-16T13:16:53.868Z,51.23
2018-06-16T13:18:02.520Z,51.62
2018-06-16T13:19:11.178Z,52.2
2018-06-16T13:20:19.828Z,52.29
2018-06-16T13:21:28.484Z,53.26
2018-06-16T13:22:37.133Z,53.85
2018-06-16T13:23:45.795Z,53.85
2018-06-16T13:24:54.707Z,54.13
2018-06-16T13:26:03.361Z,53.75
2018-06-16T13:27:12.007Z,54.23
2018-06-16T13:28:20.923Z,52.68
2018-06-16T13:29:29.583Z,53.26
2018-06-16T13:30:38.231Z,52.2
2018-06-16T13:31:46.886Z,51.9
2018-06-16T13:32:55.531Z,51.25
2018-06-16T13:34:04.459Z,51.16
2018-06-16T13:35:13.366Z,50.96
2018-06-16T13:36:22.056Z,52.22
2018-06-16T13:37:30.671Z,52.32
2018-06-16T13:38:39.333Z,54.55
2018-06-16T13:39:47.984Z,55.22
2018-06-16T13:40:56.901Z,54.45
2018-06-16T13:42:05.549Z,54.23
2018-06-16T13:43:14.219Z,52.68
2018-06-16T13:44:23.194Z,52.97
2018-06-16T13:45:31.851Z,52.68
2018-06-16T13:46:40.506Z,53.75
2018-06-16T13:47:49.148Z,54.43
2018-06-16T13:48:57.805Z,54.03
2018-06-16T13:50:06.452Z,53.77
2018-06-16T13:51:15.380Z,52.8
2018-06-16T13:52:24.030Z,52.32
2018-06-16T13:53:32.687Z,51.25
2018-06-16T13:54:41.341Z,51.84
2018-06-16T13:55:49.998Z,51.06
2018-06-16T13:56:58.644Z,50.87
2018-06-16T13:58:07.300Z,50.67
2018-06-16T13:59:15.949Z,50.96
2018-06-16T14:00:24.613Z,51.06
2018-06-16T14:01:33.264Z,51.16
2018-06-16T14:02:41.913Z,51.45
2018-06-16T14:03:50.566Z,51.06
2018-06-16T14:04:59.221Z,51.35
2018-06-16T14:06:07.880Z,51.06
2018-06-16T14:07:16.794Z,50.96
2018-06-16T14:08:25.719Z,51.06
2018-06-16T14:09:34.364Z,51.45
2018-06-16T14:10:43.027Z,50.29
2018-06-16T14:11:51.675Z,50.38
2018-06-16T14:13:00.332Z,50.96
2018-06-16T14:14:08.982Z,50.67
2018-06-16T14:15:17.643Z,50.67
2018-06-16T14:16:26.293Z,51.09
2018-06-16T14:17:35.225Z,50.38
2018-06-16T14:18:43.869Z,50.19
2018-06-16T14:19:52.523Z,50.96
2018-06-16T14:21:01.221Z,50.38
2018-06-16T14:22:09.840Z,50.29
2018-06-16T14:23:18.760Z,50.67
2018-06-16T14:24:27.403Z,50.67
2018-06-16T14:25:36.065Z,51.06
2018-06-16T14:26:44.981Z,51.45
2018-06-16T14:27:53.632Z,50.77
2018-06-16T14:29:02.557Z,51.06
2018-06-16T14:30:11.211Z,51.06
2018-06-16T14:31:20.138Z,51.35
2018-06-16T14:32:28.780Z,50.96
2018-06-16T14:33:37.438Z,49.61
2018-06-16T14:34:46.090Z,49.61
2018-06-16T14:35:54.746Z,49.99
2018-06-16T14:37:03.392Z,49.32
2018-06-16T14:38:12.048Z,49.51
2018-06-16T14:39:20.703Z,49.9
2018-06-16T14:40:29.355Z,51.06
2018-06-16T14:41:38.015Z,51.32
2018-06-16T14:42:46.658Z,51.16
2018-06-16T14:43:55.581Z,52
2018-06-16T14:45:04.232Z,52.2
2018-06-16T14:46:12.895Z,52.29
2018-06-16T14:47:21.544Z,50.94
2018-06-16T14:48:30.200Z,51.81